AirNav   Advertisement
 
 933 users online  

5ND9 Deck Airport
Hillsboro, North Dakota, USA

GOING TO HILLSBORO?


FAA INFORMATION EFFECTIVE 14 SEPTEMBER 2017

Location

FAA Identifier: 5ND9
Lat/Long: 47-29-04.9270N / 097-04-29.3130W
47-29.082117N / 097-04.488550W
47.4847019 / -97.0748092
(estimated)
Elevation: 916 ft. / 279 m (estimated)
Variation: 06E (1985)
From city: 4 miles N of HILLSBORO, ND
Time zone: UTC -5 (UTC -6 during Standard Time)
Zip code: 58223

Airport Operations

Airport use: Private use. Permission required prior to landing
Activation date: 04/1977
Control tower: no
ARTCC: MINNEAPOLIS CENTER
FSS: GRAND FORKS FLIGHT SERVICE STATION
Attendance: MON-SAT DAYLIGHT HOURS
Wind indicator: yes
Segmented circle: no

Nearby radio navigation aids

VOR radial/distance  VOR name  Freq  Var
GFKr162/28.6GRAND FORKS VOR/DME114.3009E

 
NDB name  Hdg/Dist  Freq  Var  ID
CROOKSTON218/28.340003ECKN -.-. -.- -.

Airport Services

Runway Information

Runway 16/34

Dimensions: 4400 x 60 ft. / 1341 x 18 m
Surface: turf
RUNWAY 16  RUNWAY 34
Traffic pattern: leftleft

Airport Ownership and Management from official FAA records

Ownership: Privately-owned
Owner: SKY TRACTOR SUPPLY CO LLC
16285 5TH STREET NE
HILLSBORO, ND 58045
Phone 701-636-5880
Manager: MICHAEL DECK
16285 5TH STREET NE
HILLSBORO, ND 58045
Phone 701-636-5880

Airport Operational Statistics

Aircraft based on the field: 6
Single engine airplanes: 6
    

Instrument Procedures

There are no published instrument procedures at 5ND9.

Some nearby airports with instrument procedures:

3H4 - Hillsboro Municipal Airport (8 nm S)
4V4 - Northwood Municipal Airport-Vince Field (25 nm NW)
KGFK - Grand Forks International Airport (28 nm N)
KCKN - Crookston Municipal Airport-Kirkwood Field (28 nm NE)
D00 - Norman County Ada/Twin Valley Airport (31 nm SE)
 
Loc | Ops | Rwys | IFR | FBO | Links
Com | Nav | Svcs | Stats | Notes


 
Area around 5ND9 (Deck Airport)
 
Road maps at: MapQuest Bing Google
 
Aerial photo
No photo
 
Sectional chart

 
Airport distance calculator
Flying to Deck Airport? Find the distance to fly.

From to 5ND9

Sunrise and sunset
Times for 23-Sep-2017
 Local
(UTC-5)
 Zulu
(UTC)
Morning civil twilight06:4711:47
Sunrise07:1712:17
Sunset19:2400:24
Evening civil twilight19:5500:55

Current date and time
Zulu (UTC)  23-Sep-2017 21:16:03
Local (UTC-5)  23-Sep-2017 16:16:03
 
METAR
KGFK 
28nm N 
232053Z 01012KT 10SM SCT027 BKN033 BKN150 18/11 A3003 RMK AO2 SLP172 T01780106 55008
KCKN 
29nm NE 
232054Z AUTO 03008KT 10SM OVC023 16/10 A3004 RMK AO2
KRDR 
32nm NW 
232056Z AUTO 01010KT 10SM OVC040 16/09 A3004 RMK AO2 SLP180 T01610090 58005
KFAR 
35nm S 
232053Z 02010KT 10SM SCT022 OVC038 17/11 A3002 RMK AO2 SLP168 T01670106 58008
KS32 
42nm W 
232055Z AUTO 02008KT 10SM 15/09 A3006 RMK AO2
KJKJ 
42nm SE 
232054Z AUTO 02008KT 10SM BKN021 OVC037 16/10 A3003 RMK AO2
K3N8 
48nm E 
232055Z AUTO 03006KT 10SM OVC011 13/11 A3004 RMK AO2 T01320106
TAF
KGFK 
28nm N 
231731Z 2318/2418 35012KT P6SM BKN025 TEMPO 2320/2323 BKN040 FM232300 02009KT P6SM BKN045 FM240200 02008KT P6SM VCSH OVC030 FM240600 01010KT P6SM SHRA OVC015
KRDR 
32nm NW 
231800Z 2318/2424 01009KT 9999 SCT020 OVC035 QNH3002INS BECMG 2320/2321 01010G15KT 9999 OVC015 QNH2995INS BECMG 2405/2406 02009KT 8000 -RA OVC007 QNH2988INS BECMG 2408/2409 35010G15KT 8000 -RA OVC007 QNH2984INS TX17/2321Z TN10/2411Z
KFAR 
35nm S 
231731Z 2318/2418 35010KT P6SM OVC025 TEMPO 2318/2321 BKN015 FM240000 01008KT P6SM -SHRA OVC025 FM240300 03010KT 6SM SHRA OVC015 FM241300 01005KT P6SM VCSH OVC010
NOTAMs
Click for the latest NOTAMs
NOTAMs are issued by the DoD/FAA and will open in a separate window not controlled by AirNav.

 

 
 

Would you like to see your business listed on this page?

 If your business provides an interesting product or service to pilots, flight crews, aircraft, or users of the Deck Airport, you should consider listing it here.  To start the listing process, click on the button below
 
Add a business
 

Other Pages about Deck Airport

Update a link
 
Copyright © AirNav, LLC. All rights reserved. Privacy Policy  Contact